createdAt,value
2018-08-04T00:00:13.335Z,66.64
2018-08-04T00:02:42.102Z,65.34
2018-08-04T00:05:11.269Z,66.02
2018-08-04T00:07:40.372Z,66.04
2018-08-04T00:10:15.767Z,65.32
2018-08-04T00:12:45.539Z,65.30
2018-08-04T00:15:14.354Z,66.36
2018-08-04T00:17:43.286Z,66.32
2018-08-04T00:20:12.097Z,66.87
2018-08-04T00:22:40.938Z,67.38
2018-08-04T00:25:09.876Z,67.29
2018-08-04T00:27:38.777Z,67.26
2018-08-04T00:30:11.362Z,67.52
2018-08-04T00:32:40.358Z,69.16
2018-08-04T00:35:09.737Z,69.30
2018-08-04T00:37:38.737Z,69.60
2018-08-04T00:40:09.815Z,69.45
2018-08-04T00:42:38.594Z,69.83
2018-08-04T00:45:07.467Z,69.97
2018-08-04T00:47:36.202Z,70.16
2018-08-04T00:50:05.935Z,70.02
2018-08-04T00:52:34.812Z,69.46
2018-08-04T00:55:03.579Z,70.16
2018-08-04T00:57:32.357Z,70.13
2018-08-04T01:00:01.111Z,70.99
2018-08-04T01:02:30.002Z,71.04
2018-08-04T01:04:58.738Z,70.97
2018-08-04T01:07:27.471Z,71.28
2018-08-04T01:09:59.796Z,71.61
2018-08-04T01:12:28.790Z,71.62
2018-08-04T01:14:57.541Z,72.00
2018-08-04T01:17:26.333Z,71.60
2018-08-04T01:19:55.142Z,71.75
2018-08-04T01:22:23.966Z,72.38
2018-08-04T01:24:52.886Z,72.84
2018-08-04T01:27:21.786Z,72.41
2018-08-04T01:29:50.570Z,72.64
2018-08-04T01:32:19.321Z,72.51
2018-08-04T01:34:48.297Z,72.53
2018-08-04T01:37:17.002Z,73.29
2018-08-04T01:39:45.845Z,72.50
2018-08-04T01:42:14.658Z,72.85
2018-08-04T01:44:43.378Z,72.91
2018-08-04T01:47:12.146Z,73.81
2018-08-04T01:49:40.877Z,72.93
2018-08-04T01:52:09.642Z,73.47
2018-08-04T01:54:38.366Z,73.25
2018-08-04T01:57:07.135Z,74.07
2018-08-04T01:59:35.846Z,74.29
2018-08-04T02:02:04.935Z,73.62
2018-08-04T02:04:33.705Z,74.54
2018-08-04T02:07:02.455Z,73.83
2018-08-04T02:09:31.200Z,73.35
2018-08-04T02:11:59.946Z,73.40
2018-08-04T02:14:28.698Z,74.27
2018-08-04T02:16:57.458Z,73.75
2018-08-04T02:19:26.271Z,74.80
2018-08-04T02:21:55.031Z,74.86
2018-08-04T02:24:23.838Z,74.28
2018-08-04T02:26:52.663Z,74.76
2018-08-04T02:29:21.437Z,74.99
2018-08-04T02:31:50.191Z,75.12
2018-08-04T02:34:18.966Z,74.52
2018-08-04T02:36:47.736Z,74.85
2018-08-04T02:39:16.493Z,75.11
2018-08-04T02:41:45.251Z,74.49
2018-08-04T02:44:14.043Z,74.86
2018-08-04T02:46:42.795Z,75.14
2018-08-04T02:49:11.574Z,75.61
2018-08-04T02:51:40.343Z,74.70
2018-08-04T02:54:09.423Z,74.93
2018-08-04T02:56:38.205Z,75.13
2018-08-04T02:59:07.008Z,75.21
2018-08-04T03:01:35.931Z,74.92
2018-08-04T03:04:04.715Z,74.50
2018-08-04T03:06:33.475Z,74.42
2018-08-04T03:09:02.293Z,74.65
2018-08-04T03:11:31.059Z,75.36
2018-08-04T03:13:59.971Z,75.54
2018-08-04T03:16:28.767Z,75.33
2018-08-04T03:19:00.431Z,74.97
2018-08-04T03:21:29.692Z,75.02
2018-08-04T03:23:58.464Z,75.23
2018-08-04T03:26:27.390Z,75.48
2018-08-04T03:28:56.384Z,75.56
2018-08-04T03:31:25.558Z,74.61
2018-08-04T03:33:54.429Z,75.03
2018-08-04T03:36:23.201Z,75.04
2018-08-04T03:38:52.055Z,75.23
2018-08-04T03:41:20.838Z,75.20
2018-08-04T03:43:49.569Z,76.02
2018-08-04T03:46:18.673Z,75.17
2018-08-04T03:48:47.432Z,75.91
2018-08-04T03:51:16.213Z,75.59
2018-08-04T03:53:45.010Z,76.00
2018-08-04T03:56:13.776Z,74.69
2018-08-04T03:58:42.501Z,75.38
2018-08-04T04:01:11.252Z,74.89
2018-08-04T04:03:40.053Z,75.24
2018-08-04T04:06:08.882Z,74.32
2018-08-04T04:08:37.626Z,74.66
2018-08-04T04:11:06.498Z,74.92
2018-08-04T04:13:35.249Z,74.57
2018-08-04T04:16:04.038Z,74.75
2018-08-04T04:18:32.965Z,74.05
2018-08-04T04:21:01.739Z,74.82
2018-08-04T04:23:30.466Z,74.19
2018-08-04T04:25:59.214Z,73.98
2018-08-04T04:28:27.995Z,73.26
2018-08-04T04:30:56.775Z,71.92
2018-08-04T04:33:25.590Z,72.55
2018-08-04T04:35:54.567Z,71.57
2018-08-04T04:38:23.401Z,71.37
2018-08-04T04:40:52.177Z,71.34
2018-08-04T04:43:20.940Z,71.68
2018-08-04T04:45:49.700Z,71.23
2018-08-04T04:48:18.470Z,71.08
2018-08-04T04:50:47.792Z,71.44
2018-08-04T04:53:16.552Z,69.32
2018-08-04T04:55:45.377Z,65.81
2018-08-04T04:58:14.165Z,62.57
2018-08-04T05:00:43.034Z,59.53
2018-08-04T05:03:11.902Z,56.43
2018-08-04T05:05:41.545Z,55.34
2018-08-04T05:08:10.352Z,52.98
2018-08-04T05:10:39.870Z,50.93
2018-08-04T05:13:08.793Z,50.11
2018-08-04T05:15:37.590Z,50.14
2018-08-04T05:18:06.756Z,48.75
2018-08-04T05:20:35.496Z,47.98
2018-08-04T05:23:04.414Z,47.48
2018-08-04T05:25:33.171Z,48.96
2018-08-04T05:28:02.004Z,47.33
2018-08-04T05:30:30.795Z,47.04
2018-08-04T05:32:59.607Z,46.77
2018-08-04T05:35:28.324Z,47.95
2018-08-04T05:37:57.117Z,47.58
2018-08-04T05:40:26.485Z,49.47
2018-08-04T05:42:55.248Z,49.96
2018-08-04T05:45:24.083Z,51.31
2018-08-04T05:47:52.861Z,53.29
2018-08-04T05:50:21.650Z,53.66
2018-08-04T05:52:50.412Z,53.75
2018-08-04T05:55:19.290Z,54.55
2018-08-04T05:57:48.067Z,55.62
2018-08-04T06:00:17.012Z,57.12
2018-08-04T06:02:46.144Z,57.02
2018-08-04T06:05:14.968Z,56.79
2018-08-04T06:07:43.687Z,57.48
2018-08-04T06:10:12.468Z,58.72
2018-08-04T06:12:41.242Z,57.92
2018-08-04T06:15:10.041Z,58.54
2018-08-04T06:17:38.811Z,58.05
2018-08-04T06:20:07.594Z,59.31
2018-08-04T06:22:36.372Z,58.13
2018-08-04T06:25:05.199Z,57.46
2018-08-04T06:27:36.889Z,57.41
2018-08-04T06:30:08.942Z,59.10
2018-08-04T06:32:37.832Z,59.22
2018-08-04T06:35:06.641Z,59.28
2018-08-04T06:37:35.831Z,60.11
2018-08-04T06:40:05.086Z,59.89
2018-08-04T06:42:33.865Z,60.39
2018-08-04T06:45:02.742Z,59.11
2018-08-04T06:47:31.638Z,60.17
2018-08-04T06:50:00.478Z,58.41
2018-08-04T06:52:29.338Z,57.41
2018-08-04T06:54:58.235Z,56.72
2018-08-04T06:57:27.057Z,57.01
2018-08-04T06:59:55.841Z,53.69
2018-08-04T07:02:24.676Z,53.94
2018-08-04T07:04:53.523Z,55.79
2018-08-04T07:07:22.358Z,56.49
2018-08-04T07:09:51.217Z,56.15
2018-08-04T07:12:20.018Z,54.48
2018-08-04T07:14:48.775Z,53.58
2018-08-04T07:17:18.191Z,54.89
2018-08-04T07:19:46.945Z,53.53
2018-08-04T07:22:15.706Z,53.06
2018-08-04T07:24:44.520Z,52.09
2018-08-04T07:27:13.446Z,52.14
2018-08-04T07:29:42.200Z,52.95
2018-08-04T07:32:10.946Z,51.67
2018-08-04T07:34:39.774Z,51.63
2018-08-04T07:37:08.734Z,51.17
2018-08-04T07:39:37.566Z,50.40
2018-08-04T07:42:06.411Z,49.66
2018-08-04T07:44:35.198Z,50.86
2018-08-04T07:47:03.962Z,49.74
2018-08-04T07:49:32.695Z,49.33
2018-08-04T07:52:01.511Z,49.56
2018-08-04T07:54:30.268Z,48.53
2018-08-04T07:56:59.068Z,49.16
2018-08-04T07:59:27.920Z,49.52
2018-08-04T08:01:56.871Z,48.63
2018-08-04T08:04:25.625Z,47.60
2018-08-04T08:06:54.388Z,48.44
2018-08-04T08:09:23.126Z,48.12
2018-08-04T08:11:51.990Z,47.29
2018-08-04T08:14:20.875Z,47.52
2018-08-04T08:16:49.681Z,47.52
2018-08-04T08:19:18.515Z,49.40
2018-08-04T08:21:47.583Z,47.46
2018-08-04T08:24:16.795Z,47.91
2018-08-04T08:26:45.562Z,46.74
2018-08-04T08:29:14.532Z,46.68
2018-08-04T08:31:51.407Z,47.99
2018-08-04T08:34:21.322Z,46.87
2018-08-04T08:36:50.063Z,47.87
2018-08-04T08:39:18.935Z,47.40
2018-08-04T08:42:03.800Z,46.33
2018-08-04T08:44:34.685Z,45.86
2018-08-04T08:47:04.440Z,45.63
2018-08-04T08:49:33.170Z,45.82
2018-08-04T08:52:01.921Z,47.14
2018-08-04T08:54:30.872Z,47.39
2018-08-04T08:56:59.605Z,46.45
2018-08-04T08:59:28.388Z,46.00
2018-08-04T09:01:57.145Z,44.91
2018-08-04T09:04:25.956Z,45.00
2018-08-04T09:06:54.759Z,45.14
2018-08-04T09:09:23.496Z,45.66
2018-08-04T09:11:52.321Z,44.61
2018-08-04T09:14:21.264Z,44.02
2018-08-04T09:16:50.162Z,43.64
2018-08-04T09:19:19.065Z,44.51
2018-08-04T09:21:47.817Z,44.00
2018-08-04T09:24:16.549Z,40.89
2018-08-04T09:26:45.413Z,42.68
2018-08-04T09:29:14.169Z,42.47
2018-08-04T09:31:43.349Z,42.83
2018-08-04T09:34:12.093Z,42.27
2018-08-04T09:36:40.891Z,43.06
2018-08-04T09:39:11.790Z,41.61
2018-08-04T09:41:41.565Z,41.46
2018-08-04T09:44:11.101Z,39.57
2018-08-04T09:46:41.138Z,39.40
2018-08-04T09:49:09.940Z,37.27
2018-08-04T09:51:39.118Z,38.85
2018-08-04T09:54:07.853Z,40.01
2018-08-04T09:56:36.756Z,39.02
2018-08-04T09:59:05.938Z,36.71
2018-08-04T10:01:38.874Z,38.08
2018-08-04T10:04:08.255Z,38.99
2018-08-04T10:06:37.032Z,37.26
2018-08-04T10:09:08.627Z,37.37
2018-08-04T10:11:37.407Z,35.53
2018-08-04T10:14:06.394Z,35.67
2018-08-04T10:16:35.214Z,36.41
2018-08-04T10:19:03.993Z,36.35
2018-08-04T10:21:32.790Z,37.45
2018-08-04T10:24:01.623Z,37.47
2018-08-04T10:26:30.349Z,36.70
2018-08-04T10:28:59.117Z,36.06
2018-08-04T10:31:27.930Z,34.84
2018-08-04T10:33:56.735Z,35.48
2018-08-04T10:36:25.507Z,34.88
2018-08-04T10:38:54.335Z,36.31
2018-08-04T10:41:23.072Z,36.16
2018-08-04T10:43:51.851Z,37.13
2018-08-04T10:46:20.643Z,37.58
2018-08-04T10:48:49.823Z,34.68
2018-08-04T10:51:18.667Z,35.93
2018-08-04T10:53:47.401Z,36.78
2018-08-04T10:56:16.160Z,35.26
2018-08-04T10:58:44.958Z,34.77
2018-08-04T11:01:13.818Z,35.07
2018-08-04T11:03:42.678Z,35.39
2018-08-04T11:06:11.637Z,36.19
2018-08-04T11:08:40.377Z,35.77
2018-08-04T11:11:09.191Z,36.28
2018-08-04T11:13:57.278Z,35.17
2018-08-04T11:16:26.090Z,36.31
2018-08-04T11:18:54.899Z,35.89
2018-08-04T11:21:23.651Z,35.69
2018-08-04T11:23:52.438Z,34.82
2018-08-04T11:26:21.307Z,36.69
2018-08-04T11:28:50.329Z,36.89
2018-08-04T11:31:19.172Z,36.41
2018-08-04T11:33:47.942Z,36.65
2018-08-04T11:36:16.744Z,36.72
2018-08-04T11:38:56.562Z,36.89
2018-08-04T11:41:25.467Z,35.99
2018-08-04T11:43:54.217Z,35.77
2018-08-04T11:46:22.991Z,37.63
2018-08-04T11:48:51.802Z,36.99
2018-08-04T11:51:20.549Z,37.01
2018-08-04T11:53:49.430Z,37.68
2018-08-04T11:56:18.278Z,37.85
2018-08-04T11:58:47.068Z,38.85
2018-08-04T12:01:15.803Z,38.82
2018-08-04T12:03:44.634Z,36.98
2018-08-04T12:06:13.462Z,37.28
2018-08-04T12:08:42.402Z,36.71
2018-08-04T12:11:11.732Z,37.34
2018-08-04T12:13:40.587Z,35.86
2018-08-04T12:16:09.430Z,37.77
2018-08-04T12:18:38.169Z,38.96
2018-08-04T12:21:07.091Z,39.79
2018-08-04T12:23:35.878Z,40.55
2018-08-04T12:26:04.620Z,39.80
2018-08-04T12:28:33.413Z,38.47
2018-08-04T12:31:02.285Z,39.84
2018-08-04T12:33:31.023Z,38.75
2018-08-04T12:35:59.802Z,38.90
2018-08-04T12:38:28.551Z,38.96
2018-08-04T12:40:57.298Z,39.39
2018-08-04T12:43:26.094Z,40.64
2018-08-04T12:45:54.913Z,40.12
2018-08-04T12:48:26.759Z,40.29
2018-08-04T12:50:55.490Z,40.00
2018-08-04T12:53:24.234Z,41.12
2018-08-04T12:55:53.027Z,40.22
2018-08-04T12:58:21.823Z,40.92
2018-08-04T13:00:50.786Z,41.60
2018-08-04T13:03:19.874Z,40.66
2018-08-04T13:05:48.615Z,40.15
2018-08-04T13:08:17.475Z,40.51
2018-08-04T13:10:46.858Z,39.73
2018-08-04T13:13:15.616Z,38.78
2018-08-04T13:15:44.517Z,40.02
2018-08-04T13:18:13.531Z,39.94
2018-08-04T13:20:42.299Z,39.64
2018-08-04T13:23:11.111Z,40.06
2018-08-04T13:25:40.008Z,40.15
2018-08-04T13:28:08.842Z,40.60
2018-08-04T13:30:38.294Z,39.94
2018-08-04T13:33:07.072Z,40.84
2018-08-04T13:35:35.818Z,40.11
2018-08-04T13:38:04.978Z,40.47
2018-08-04T13:40:34.487Z,40.19
2018-08-04T13:43:03.290Z,39.88
2018-08-04T13:45:32.162Z,40.86
2018-08-04T13:48:01.143Z,41.22
2018-08-04T13:50:30.974Z,41.05
2018-08-04T13:52:59.833Z,41.50
2018-08-04T13:55:29.541Z,40.86
2018-08-04T13:57:58.285Z,40.23
2018-08-04T14:00:27.189Z,41.23
2018-08-04T14:02:55.979Z,40.31
2018-08-04T14:05:24.795Z,41.43
2018-08-04T14:07:53.558Z,40.67
2018-08-04T14:10:22.385Z,40.11
2018-08-04T14:12:51.243Z,40.35
2018-08-04T14:15:20.088Z,40.15
2018-08-04T14:17:48.887Z,39.22
2018-08-04T14:20:17.649Z,39.60
2018-08-04T14:22:46.489Z,39.80
2018-08-04T14:25:15.569Z,40.34
2018-08-04T14:27:44.340Z,40.24
2018-08-04T14:30:13.271Z,41.14
2018-08-04T14:32:42.069Z,41.44
2018-08-04T14:35:10.852Z,39.83
2018-08-04T14:37:40.005Z,39.98
2018-08-04T14:40:08.824Z,39.41
2018-08-04T14:42:37.619Z,39.63
2018-08-04T14:45:06.358Z,41.69
2018-08-04T14:47:35.116Z,41.59
2018-08-04T14:50:03.948Z,42.12
2018-08-04T14:52:33.050Z,40.56
2018-08-04T14:55:01.864Z,41.38
2018-08-04T14:57:30.828Z,42.12
2018-08-04T14:59:59.597Z,41.70
2018-08-04T15:02:28.351Z,42.10
2018-08-04T15:04:57.276Z,41.77
2018-08-04T15:07:26.386Z,42.60
2018-08-04T15:09:55.183Z,42.01
2018-08-04T15:12:24.040Z,42.20
2018-08-04T15:14:52.761Z,42.23
2018-08-04T15:17:21.554Z,42.04
2018-08-04T15:19:50.671Z,43.33
2018-08-04T15:22:19.546Z,43.20
2018-08-04T15:24:48.364Z,43.15
2018-08-04T15:27:17.161Z,43.57
2018-08-04T15:29:45.913Z,42.11
2018-08-04T15:32:14.653Z,43.76
2018-08-04T15:34:46.425Z,42.80
2018-08-04T15:37:15.193Z,43.35
2018-08-04T15:39:44.017Z,42.94
2018-08-04T15:42:12.743Z,42.77
2018-08-04T15:44:41.528Z,42.53
2018-08-04T15:47:10.318Z,42.79
2018-08-04T15:49:39.090Z,41.79
2018-08-04T15:52:07.891Z,41.97
2018-08-04T15:54:36.658Z,42.16
2018-08-04T15:57:05.421Z,42.90
2018-08-04T15:59:34.188Z,42.74
2018-08-04T16:02:02.995Z,43.25
2018-08-04T16:04:31.838Z,43.32
2018-08-04T16:07:00.648Z,43.92
2018-08-04T16:09:29.398Z,43.87
2018-08-04T16:11:58.225Z,44.09
2018-08-04T16:14:27.059Z,42.86
2018-08-04T16:16:55.899Z,44.05
2018-08-04T16:19:25.066Z,43.65
2018-08-04T16:21:53.879Z,43.63
2018-08-04T16:24:22.675Z,43.58
2018-08-04T16:26:51.631Z,43.66
2018-08-04T16:29:20.457Z,44.72
2018-08-04T16:31:49.220Z,44.34
2018-08-04T16:34:18.110Z,44.71
2018-08-04T16:36:46.831Z,43.96
2018-08-04T16:39:15.589Z,45.31
2018-08-04T16:41:44.478Z,44.66
2018-08-04T16:44:13.467Z,44.60
2018-08-04T16:46:42.260Z,44.91
2018-08-04T16:49:11.075Z,46.31
2018-08-04T16:51:39.917Z,45.58
2018-08-04T16:54:08.723Z,45.81
2018-08-04T16:56:37.616Z,45.70
2018-08-04T16:59:06.466Z,45.30
2018-08-04T17:01:35.297Z,45.42
2018-08-04T17:04:04.779Z,46.07
2018-08-04T17:06:33.564Z,46.61
2018-08-04T17:09:02.407Z,45.24
2018-08-04T17:11:31.220Z,47.22
2018-08-04T17:13:59.972Z,46.90
2018-08-04T17:16:28.884Z,46.24
2018-08-04T17:18:57.857Z,46.48
2018-08-04T17:21:26.728Z,46.63
2018-08-04T17:23:56.282Z,47.27
2018-08-04T17:26:25.087Z,47.10
2018-08-04T17:28:53.951Z,46.97
2018-08-04T17:31:23.000Z,47.78
2018-08-04T17:33:51.725Z,47.22
2018-08-04T17:36:20.510Z,47.93
2018-08-04T17:38:49.386Z,47.41
2018-08-04T17:41:18.232Z,48.42
2018-08-04T17:43:47.110Z,47.91
2018-08-04T17:46:15.873Z,49.47
2018-08-04T17:48:44.686Z,49.54
2018-08-04T17:51:13.437Z,49.94
2018-08-04T17:53:42.218Z,49.46
2018-08-04T17:56:10.981Z,49.25
2018-08-04T17:58:39.787Z,48.76
2018-08-04T18:01:08.896Z,50.22
2018-08-04T18:03:38.069Z,49.65
2018-08-04T18:06:07.317Z,50.38
2018-08-04T18:08:36.095Z,49.74
2018-08-04T18:11:05.017Z,50.46
2018-08-04T18:13:33.796Z,52.05
2018-08-04T18:16:02.757Z,51.06
2018-08-04T18:18:31.549Z,51.37
2018-08-04T18:21:00.337Z,52.56
2018-08-04T18:23:29.129Z,53.05
2018-08-04T18:25:57.910Z,52.67
2018-08-04T18:28:26.675Z,51.85
2018-08-04T18:30:55.524Z,52.33
2018-08-04T18:33:24.860Z,53.55
2018-08-04T18:36:01.727Z,52.98
2018-08-04T18:38:30.497Z,54.10
2018-08-04T18:40:59.761Z,54.69
2018-08-04T18:43:28.575Z,55.00
2018-08-04T18:45:57.330Z,55.23
2018-08-04T18:48:26.198Z,54.91
2018-08-04T18:50:55.017Z,55.06
2018-08-04T18:53:23.929Z,55.24
2018-08-04T18:55:52.757Z,54.95
2018-08-04T18:58:21.632Z,56.04
2018-08-04T19:00:50.636Z,55.37
2018-08-04T19:03:19.947Z,56.59
2018-08-04T19:05:49.569Z,55.83
2018-08-04T19:08:18.693Z,55.91
2018-08-04T19:10:48.977Z,56.52
2018-08-04T19:13:17.784Z,56.14
2018-08-04T19:15:46.645Z,57.00
2018-08-04T19:18:15.558Z,57.53
2018-08-04T19:20:45.009Z,57.71
2018-08-04T19:23:13.799Z,57.00
2018-08-04T19:25:43.360Z,57.34
2018-08-04T19:28:12.275Z,57.86
2018-08-04T19:30:41.278Z,58.16
2018-08-04T19:33:10.030Z,58.63
2018-08-04T19:35:38.817Z,59.44
2018-08-04T19:38:07.596Z,59.07
2018-08-04T19:40:36.334Z,58.43
2018-08-04T19:43:05.656Z,58.66
2018-08-04T19:45:34.800Z,59.56
2018-08-04T19:48:05.262Z,58.53
2018-08-04T19:50:34.194Z,59.03
2018-08-04T19:53:02.938Z,60.09
2018-08-04T19:55:31.689Z,60.01
2018-08-04T19:58:00.691Z,60.28
2018-08-04T20:00:29.451Z,59.54
2018-08-04T20:02:58.231Z,61.10
2018-08-04T20:05:26.967Z,60.51
2018-08-04T20:07:55.734Z,61.06
2018-08-04T20:10:24.471Z,58.81
2018-08-04T20:12:53.194Z,59.07
2018-08-04T20:15:22.019Z,58.18
2018-08-04T20:17:50.887Z,59.39
2018-08-04T20:20:19.709Z,59.62
2018-08-04T20:22:48.515Z,58.85
2018-08-04T20:25:17.358Z,59.21
2018-08-04T20:27:46.161Z,59.78
2018-08-04T20:30:14.923Z,58.80
2018-08-04T20:32:44.125Z,59.70
2018-08-04T20:35:13.253Z,58.56
2018-08-04T20:37:42.038Z,59.05
2018-08-04T20:40:10.841Z,58.30
2018-08-04T20:42:39.731Z,58.24
2018-08-04T20:45:08.518Z,58.60
2018-08-04T20:47:37.286Z,58.47
2018-08-04T20:50:06.180Z,57.59
2018-08-04T20:52:34.994Z,57.84
2018-08-04T20:55:03.883Z,59.17
2018-08-04T20:57:32.663Z,59.35
2018-08-04T21:00:01.416Z,59.29
2018-08-04T21:02:30.213Z,58.32
2018-08-04T21:04:59.061Z,59.27
2018-08-04T21:07:27.872Z,59.83
2018-08-04T21:09:56.669Z,59.68
2018-08-04T21:12:25.481Z,59.97
2018-08-04T21:14:54.274Z,58.90
2018-08-04T21:17:23.060Z,58.59
2018-08-04T21:19:51.920Z,59.36
2018-08-04T21:22:20.736Z,59.08
2018-08-04T21:24:49.589Z,58.61
2018-08-04T21:27:18.393Z,57.38
2018-08-04T21:29:47.105Z,58.74
2018-08-04T21:32:15.897Z,59.71
2018-08-04T21:34:44.831Z,59.13
2018-08-04T21:37:13.581Z,58.53
2018-08-04T21:39:42.435Z,58.77
2018-08-04T21:42:11.197Z,59.17
2018-08-04T21:44:39.978Z,59.65
2018-08-04T21:49:36.446Z,60.34
2018-08-04T21:52:05.211Z,59.94
2018-08-04T21:54:33.932Z,60.83
2018-08-04T21:57:02.722Z,61.19
2018-08-04T21:59:31.525Z,60.39
2018-08-04T22:02:00.444Z,60.71
2018-08-04T22:04:29.351Z,60.94
2018-08-04T22:08:07.877Z,60.74
2018-08-04T22:10:36.666Z,61.50
2018-08-04T22:13:05.746Z,61.46
2018-08-04T22:15:35.028Z,60.53
2018-08-04T22:18:03.830Z,61.55
2018-08-04T22:20:32.820Z,60.23
2018-08-04T22:23:01.560Z,62.23
2018-08-04T22:25:31.049Z,62.47
2018-08-04T22:28:00.246Z,62.03
2018-08-04T22:30:29.406Z,63.29
2018-08-04T22:32:58.585Z,63.37
2018-08-04T22:35:27.390Z,63.64
2018-08-04T22:37:56.209Z,63.18
2018-08-04T22:40:24.993Z,63.76
2018-08-04T22:42:53.790Z,63.79
2018-08-04T22:45:46.590Z,63.49
2018-08-04T22:48:15.362Z,63.89
2018-08-04T22:50:44.126Z,63.19
2018-08-04T22:53:12.886Z,64.61
2018-08-04T22:55:42.362Z,64.86
2018-08-04T22:58:11.618Z,64.74
2018-08-04T23:00:41.641Z,63.81
2018-08-04T23:03:11.343Z,63.41
2018-08-04T23:05:40.227Z,63.85
2018-08-04T23:08:09.551Z,63.72
2018-08-04T23:10:39.205Z,64.13
2018-08-04T23:13:08.868Z,65.04
2018-08-04T23:15:37.697Z,65.17
2018-08-04T23:18:06.618Z,65.85
2018-08-04T23:20:35.434Z,65.13
2018-08-04T23:23:04.198Z,65.42
2018-08-04T23:25:32.988Z,65.19
2018-08-04T23:28:02.077Z,64.86
2018-08-04T23:30:30.874Z,64.30
2018-08-04T23:32:59.665Z,64.46
2018-08-04T23:35:28.782Z,65.18
2018-08-04T23:37:57.549Z,64.36
2018-08-04T23:40:26.318Z,65.49
2018-08-04T23:42:55.200Z,65.67
2018-08-04T23:45:23.967Z,65.69
2018-08-04T23:47:52.790Z,65.81
2018-08-04T23:50:21.578Z,65.02
2018-08-04T23:52:50.400Z,66.21
2018-08-04T23:55:19.230Z,65.56
2018-08-04T23:57:47.990Z,65.60
